ROMMA est une association bénévole à but non lucratif. Votre soutien est indispensable : ADHERER à ROMMA ou FAIRE un DON

Granges-lès-Beaumont - (26, Drôme)

Drôme des Collines (155 m)   Longitude: 04°58'E   Latitude: 45°03'N Station partenaire n°123
 

Détail journalier du     <<     >>

Température Precipitation Humidité Pression Vent Dir Rafale Dir. rafale Ensol.
Heure (°C) (mm) (%) (hPa) (km/h) (km/h) (min)
01:00 6.607110193NNO13NNO0
02:00 5.007710192NNO8NNO0
03:00 4.607810197NO13NNO0
04:00 3.708110186NNO11NNO0
05:00 3.308210183NNO11NNO0
06:00 2.308410191---8E0
07:00 2.108610192NNO8NNO0
08:00 3.708610191NNO8NNO0
09:00 5.508210193E10E0
10:00 10.806110192SSE6SE40
11:00 13.105810183ESE11OSO60
12:00 14.904710173SO13SSO60
13:00 16.004110176OSO15OSO60
14:00 17.404010167SSE19S20
15:00 19.103610157SSE26S60
16:00 20.1032101511SSE31S60
17:00 19.1034101414SSO34S20
18:00 18.3033101314SSO39SSO0
19:00 17.6034101315S37S0
20:00 16.7036101418SSO47SSO0
21:00 15.3043101414SSO37SSO0
22:00 14.4049101512SSO35SSO0
23:00 13.8053101512SSO37SSO0
minuit 13.0075101415SSO44S0

Graphique du 07-05-2019

 

Serveur OMMA